Time;durP1;ratioP1;P1;durP2;ratioP2;P2;SDS_P1;SDS_P2;PMS_P1;PMS_P2;Temp;Humidity;BMP_temperature;BMP_pressure;BME280_temperature;BME280_humidity;BME280_pressure;Samples;Min_cycle;Max_cycle;Signal;HPM_P1;HPM_P2
2023/03/18 00:02:20;;;;;;;18.17;10.07;;;;;;;;;;5074789;28;20032;-75
2023/03/18 00:04:46;;;;;;;17.67;10.68;;;;;;;;;;5096266;28;20399;-76
2023/03/18 00:07:13;;;;;;;20.60;11.57;;;;;;;;;;5078451;28;20103;-76
2023/03/18 00:09:40;;;;;;;19.83;11.25;;;;;;;;;;5090988;28;20072;-76
2023/03/18 00:12:07;;;;;;;17.88;11.13;;;;;;;;;;5078813;28;20083;-76
2023/03/18 00:14:34;;;;;;;17.92;11.32;;;;;;;;;;5090689;28;20063;-75
2023/03/18 00:17:01;;;;;;;16.80;11.38;;;;;;;;;;5065833;28;20165;-77
2023/03/18 00:19:27;;;;;;;14.95;10.68;;;;;;;;;;5074878;28;20108;-75
2023/03/18 00:21:54;;;;;;;17.33;10.85;;;;;;;;;;5075307;28;20056;-76
2023/03/18 00:24:20;;;;;;;18.83;11.40;;;;;;;;;;5070853;28;20159;-74
2023/03/18 00:26:46;;;;;;;19.17;11.88;;;;;;;;;;5078441;28;20384;-72
2023/03/18 00:29:13;;;;;;;17.23;11.82;;;;;;;;;;5089411;28;20027;-75
2023/03/18 00:31:39;;;;;;;21.85;13.40;;;;;;;;;;5083754;28;20028;-74
2023/03/18 00:34:06;;;;;;;16.23;12.60;;;;;;;;;;5074624;28;20158;-73
2023/03/18 00:36:33;;;;;;;23.23;14.40;;;;;;;;;;5086858;28;20032;-79
2023/03/18 00:39:02;;;;;;;21.42;13.25;;;;;;;;;;5082726;28;20044;-77
2023/03/18 00:41:28;;;;;;;20.70;13.93;;;;;;;;;;5083516;28;20039;-77
2023/03/18 00:43:55;;;;;;;23.30;15.27;;;;;;;;;;5082778;28;20024;-76
2023/03/18 00:46:22;;;;;;;22.05;15.57;;;;;;;;;;5090266;28;20023;-75
2023/03/18 00:48:48;;;;;;;24.73;15.45;;;;;;;;;;5090691;28;20088;-75
2023/03/18 00:51:16;;;;;;;23.00;15.85;;;;;;;;;;5088099;28;20063;-75
2023/03/18 00:53:46;;;;;;;24.80;16.67;;;;;;;;;;5082228;28;20028;-75
2023/03/18 00:56:13;;;;;;;28.08;16.48;;;;;;;;;;5074877;28;20056;-75
2023/03/18 00:58:39;;;;;;;28.92;17.77;;;;;;;;;;5090114;28;20519;-75
2023/03/18 01:01:06;;;;;;;22.45;17.25;;;;;;;;;;5091683;28;20387;-75
2023/03/18 01:03:33;;;;;;;24.20;16.23;;;;;;;;;;5089999;28;20482;-75
2023/03/18 01:06:00;;;;;;;23.30;16.83;;;;;;;;;;5088194;28;20055;-76
2023/03/18 01:08:27;;;;;;;24.23;15.98;;;;;;;;;;5087990;28;20063;-75
2023/03/18 01:10:53;;;;;;;24.20;16.02;;;;;;;;;;5090869;28;20055;-75
2023/03/18 01:13:19;;;;;;;21.70;17.13;;;;;;;;;;5085685;28;20028;-75
2023/03/18 01:15:46;;;;;;;23.83;16.70;;;;;;;;;;5080166;28;20108;-74
2023/03/18 01:18:13;;;;;;;26.85;17.75;;;;;;;;;;5080726;28;20034;-74
2023/03/18 01:20:39;;;;;;;22.73;16.60;;;;;;;;;;5090217;28;20084;-74
2023/03/18 01:23:07;;;;;;;22.45;16.65;;;;;;;;;;5088942;28;20055;-76
2023/03/18 01:25:34;;;;;;;22.85;16.90;;;;;;;;;;5089948;28;20103;-75
2023/03/18 01:28:00;;;;;;;25.45;17.30;;;;;;;;;;5085912;28;20024;-75
2023/03/18 01:30:27;;;;;;;26.20;17.30;;;;;;;;;;5084644;28;20027;-74
2023/03/18 01:32:54;;;;;;;29.17;17.20;;;;;;;;;;5087809;28;20039;-75
2023/03/18 01:35:20;;;;;;;24.17;18.60;;;;;;;;;;5087289;28;20431;-77
2023/03/18 01:37:47;;;;;;;35.35;19.45;;;;;;;;;;5089262;28;20093;-74
2023/03/18 01:40:13;;;;;;;24.02;17.80;;;;;;;;;;5090439;28;20050;-74
2023/03/18 01:42:40;;;;;;;28.42;18.75;;;;;;;;;;5090866;28;20032;-75
2023/03/18 01:45:22;;;;;;;23.33;18.13;;;;;;;;;;5087930;28;20028;-75
2023/03/18 01:47:49;;;;;;;;;;;;;;;;;;5080212;28;20059;-74
2023/03/18 01:50:18;;;;;;;26.45;18.05;;;;;;;;;;5073660;28;19912;-74
2023/03/18 01:52:44;;;;;;;26.92;18.80;;;;;;;;;;5089915;28;20486;-76
2023/03/18 01:55:22;;;;;;;32.15;19.90;;;;;;;;;;5084821;28;20469;-75
2023/03/18 01:57:48;;;;;;;24.80;17.58;;;;;;;;;;5052686;28;20032;-74
2023/03/18 02:00:15;;;;;;;26.77;19.67;;;;;;;;;;5077114;28;20032;-74
2023/03/18 02:02:43;;;;;;;28.55;19.63;;;;;;;;;;5089914;28;20077;-74
2023/03/18 02:05:10;;;;;;;29.30;19.40;;;;;;;;;;5083076;28;20123;-75
2023/03/18 02:07:37;;;;;;;27.42;18.73;;;;;;;;;;5087010;28;20157;-74
2023/03/18 02:10:09;;;;;;;30.45;19.25;;;;;;;;;;5053838;28;20115;-75
2023/03/18 02:12:38;;;;;;;25.73;18.50;;;;;;;;;;5083376;28;20078;-74
2023/03/18 02:15:06;;;;;;;30.23;19.17;;;;;;;;;;5087964;28;20035;-74
2023/03/18 02:17:34;;;;;;;30.85;19.92;;;;;;;;;;5085318;28;20064;-73
2023/03/18 02:20:19;;;;;;;30.02;21.10;;;;;;;;;;5085108;28;20056;-74
2023/03/18 02:22:49;;;;;;;25.08;18.70;;;;;;;;;;5077349;28;20058;-73
2023/03/18 02:25:28;;;;;;;30.77;20.50;;;;;;;;;;5086737;28;20024;-75
2023/03/18 02:27:58;;;;;;;27.95;20.00;;;;;;;;;;5090478;28;20035;-74
2023/03/18 02:30:27;;;;;;;27.20;20.48;;;;;;;;;;5082948;28;20028;-73
2023/03/18 02:32:54;;;;;;;28.92;20.48;;;;;;;;;;5080520;28;20032;-73
2023/03/18 02:35:21;;;;;;;30.25;21.15;;;;;;;;;;5086570;28;20029;-74
2023/03/18 02:37:47;;;;;;;28.40;19.42;;;;;;;;;;5085802;28;20032;-73
2023/03/18 02:40:13;;;;;;;33.42;21.42;;;;;;;;;;5084754;28;20441;-73
2023/03/18 02:42:39;;;;;;;30.50;21.08;;;;;;;;;;5086223;28;20415;-74
2023/03/18 02:45:08;;;;;;;35.53;22.83;;;;;;;;;;5090466;28;20035;-75
2023/03/18 02:47:34;;;;;;;33.10;22.65;;;;;;;;;;5091199;28;20032;-74
2023/03/18 02:50:01;;;;;;;28.08;21.05;;;;;;;;;;5092028;28;20044;-74
2023/03/18 02:52:27;;;;;;;29.48;22.52;;;;;;;;;;5087143;28;20528;-75
2023/03/18 02:54:57;;;;;;;33.42;22.40;;;;;;;;;;5091110;28;20152;-74
2023/03/18 02:57:25;;;;;;;33.88;23.15;;;;;;;;;;5090607;28;20051;-74
2023/03/18 02:59:51;;;;;;;31.40;22.83;;;;;;;;;;5091120;28;20024;-75
2023/03/18 03:02:17;;;;;;;39.58;24.65;;;;;;;;;;5092697;28;20040;-74
2023/03/18 03:04:43;;;;;;;35.28;23.35;;;;;;;;;;5094949;28;20468;-75
2023/03/18 03:07:11;;;;;;;34.45;23.52;;;;;;;;;;5091733;28;20086;-75
2023/03/18 03:09:37;;;;;;;37.92;23.23;;;;;;;;;;5084542;28;20040;-74
2023/03/18 03:12:03;;;;;;;32.38;22.75;;;;;;;;;;5085886;28;20045;-75
2023/03/18 03:14:29;;;;;;;32.65;22.63;;;;;;;;;;5091099;28;20044;-74
2023/03/18 03:16:55;;;;;;;35.58;22.77;;;;;;;;;;5083898;28;20036;-75
2023/03/18 03:19:22;;;;;;;32.28;22.80;;;;;;;;;;5091222;28;20117;-74
2023/03/18 03:21:48;;;;;;;33.58;22.02;;;;;;;;;;5092405;28;20052;-73
2023/03/18 03:24:14;;;;;;;29.13;21.38;;;;;;;;;;5093164;28;20047;-73
2023/03/18 03:26:41;;;;;;;33.45;22.17;;;;;;;;;;5092620;28;20204;-75
2023/03/18 03:29:07;;;;;;;27.60;21.73;;;;;;;;;;5077197;28;20032;-75
2023/03/18 03:31:34;;;;;;;31.52;22.40;;;;;;;;;;5092222;28;20051;-73
2023/03/18 03:34:01;;;;;;;32.28;23.10;;;;;;;;;;5091659;28;20111;-74
2023/03/18 03:36:27;;;;;;;33.60;23.00;;;;;;;;;;5091860;28;20472;-74
2023/03/18 03:38:54;;;;;;;41.30;25.33;;;;;;;;;;5081480;28;20036;-74
2023/03/18 03:41:21;;;;;;;31.15;23.23;;;;;;;;;;5088969;28;20035;-75
2023/03/18 03:43:47;;;;;;;38.50;23.52;;;;;;;;;;5089728;28;20051;-73
2023/03/18 03:46:14;;;;;;;33.47;23.27;;;;;;;;;;5087021;28;20024;-74
2023/03/18 03:48:40;;;;;;;31.08;22.30;;;;;;;;;;5087996;28;20032;-74
2023/03/18 03:51:06;;;;;;;28.50;22.40;;;;;;;;;;5090800;28;20534;-75
2023/03/18 03:53:32;;;;;;;38.80;22.85;;;;;;;;;;5089998;28;20115;-73
2023/03/18 03:55:59;;;;;;;32.22;23.05;;;;;;;;;;5092757;28;20403;-74
2023/03/18 03:58:25;;;;;;;33.58;23.13;;;;;;;;;;5086812;28;20035;-74
2023/03/18 04:00:51;;;;;;;31.67;22.20;;;;;;;;;;5073993;28;20047;-74
2023/03/18 04:03:17;;;;;;;33.63;23.02;;;;;;;;;;5084486;28;20043;-74
2023/03/18 04:05:43;;;;;;;31.38;22.13;;;;;;;;;;5089310;28;20081;-74
2023/03/18 04:08:09;;;;;;;34.65;23.73;;;;;;;;;;5090548;28;20426;-75
2023/03/18 04:10:35;;;;;;;33.30;21.15;;;;;;;;;;5089509;28;20063;-74
2023/03/18 04:13:02;;;;;;;29.83;21.85;;;;;;;;;;5087908;28;21634;-75
2023/03/18 04:15:28;;;;;;;37.58;22.85;;;;;;;;;;5083141;28;20123;-74
2023/03/18 04:17:57;;;;;;;32.38;22.77;;;;;;;;;;5090587;28;20032;-73
2023/03/18 04:20:23;;;;;;;33.80;22.60;;;;;;;;;;5084954;28;20523;-74
2023/03/18 04:22:49;;;;;;;34.65;23.25;;;;;;;;;;5087386;28;20122;-74
2023/03/18 04:25:15;;;;;;;36.50;24.63;;;;;;;;;;5087904;28;20481;-75
2023/03/18 04:27:41;;;;;;;31.30;22.30;;;;;;;;;;5091616;28;20392;-73
2023/03/18 04:30:08;;;;;;;34.38;22.60;;;;;;;;;;5088903;28;20032;-74
2023/03/18 04:32:34;;;;;;;38.55;24.23;;;;;;;;;;5092294;28;20450;-73
2023/03/18 04:35:01;;;;;;;35.63;23.45;;;;;;;;;;5085230;28;20437;-74
2023/03/18 04:37:27;;;;;;;38.83;24.55;;;;;;;;;;5066072;28;20037;-73
2023/03/18 04:39:53;;;;;;;37.95;24.40;;;;;;;;;;5089927;28;20028;-73
2023/03/18 04:42:19;;;;;;;42.95;25.08;;;;;;;;;;5091256;28;20138;-74
2023/03/18 04:44:45;;;;;;;49.45;25.75;;;;;;;;;;5069947;28;20036;-74
2023/03/18 04:47:12;;;;;;;42.47;25.20;;;;;;;;;;5088685;28;20036;-74
2023/03/18 04:49:38;;;;;;;46.15;27.25;;;;;;;;;;5089623;28;20030;-74
2023/03/18 04:52:06;;;;;;;47.55;25.73;;;;;;;;;;5083957;28;20060;-74
2023/03/18 04:54:32;;;;;;;51.78;27.98;;;;;;;;;;5089967;28;20517;-74
2023/03/18 04:56:58;;;;;;;55.88;27.63;;;;;;;;;;5083628;28;20119;-73
2023/03/18 04:59:25;;;;;;;59.30;29.27;;;;;;;;;;5091935;28;20099;-73
2023/03/18 05:01:51;;;;;;;56.40;30.65;;;;;;;;;;5085653;28;20030;-74
2023/03/18 05:04:17;;;;;;;58.17;30.63;;;;;;;;;;5090990;28;20086;-73
2023/03/18 05:06:43;;;;;;;59.50;28.45;;;;;;;;;;5084668;28;20504;-75
2023/03/18 05:09:09;;;;;;;54.78;29.70;;;;;;;;;;5089197;28;20059;-75
2023/03/18 05:11:35;;;;;;;57.85;30.70;;;;;;;;;;5074258;28;20164;-74
2023/03/18 05:14:01;;;;;;;50.58;30.38;;;;;;;;;;5080238;28;20106;-74
2023/03/18 05:16:28;;;;;;;57.65;29.85;;;;;;;;;;5070908;28;20179;-71
2023/03/18 05:18:55;;;;;;;49.08;28.75;;;;;;;;;;5074391;28;20140;-73
2023/03/18 05:21:21;;;;;;;46.60;28.80;;;;;;;;;;5078615;28;20063;-73
2023/03/18 05:23:47;;;;;;;83.28;49.30;;;;;;;;;;5081543;28;20036;-75
2023/03/18 05:26:13;;;;;;;66.80;40.75;;;;;;;;;;5082148;28;20043;-78
2023/03/18 05:28:39;;;;;;;76.93;49.22;;;;;;;;;;5078057;28;20114;-75
2023/03/18 05:31:06;;;;;;;43.35;29.55;;;;;;;;;;5066179;28;20449;-77
2023/03/18 05:33:32;;;;;;;48.28;29.13;;;;;;;;;;5085211;28;20031;-72
2023/03/18 05:35:58;;;;;;;49.47;28.98;;;;;;;;;;5086906;28;20111;-73
2023/03/18 05:38:24;;;;;;;42.90;28.70;;;;;;;;;;5088036;28;20318;-75
2023/03/18 05:40:51;;;;;;;42.88;29.67;;;;;;;;;;5090924;28;20110;-75
2023/03/18 05:43:17;;;;;;;43.97;29.25;;;;;;;;;;5085818;28;20060;-74
2023/03/18 05:45:43;;;;;;;40.85;29.33;;;;;;;;;;5069699;28;20052;-74
2023/03/18 05:48:10;;;;;;;46.88;29.70;;;;;;;;;;5073191;28;20652;-76
2023/03/18 05:50:38;;;;;;;48.28;29.88;;;;;;;;;;5079441;28;20040;-74
2023/03/18 05:53:05;;;;;;;52.25;31.50;;;;;;;;;;5075729;28;20103;-75
2023/03/18 05:55:31;;;;;;;40.05;27.55;;;;;;;;;;5091629;28;20073;-74
2023/03/18 05:57:59;;;;;;;40.70;28.67;;;;;;;;;;5078408;28;20029;-76
2023/03/18 06:00:25;;;;;;;41.83;30.42;;;;;;;;;;5079072;28;20060;-74
2023/03/18 06:02:51;;;;;;;45.28;27.45;;;;;;;;;;5075520;28;20477;-75
2023/03/18 06:05:18;;;;;;;40.47;28.25;;;;;;;;;;5079154;28;20034;-75
2023/03/18 06:07:45;;;;;;;51.40;30.50;;;;;;;;;;5076229;28;20384;-76
2023/03/18 06:10:12;;;;;;;50.10;28.77;;;;;;;;;;5078550;28;20539;-77
2023/03/18 06:12:38;;;;;;;44.13;29.17;;;;;;;;;;5075235;28;20064;-76
2023/03/18 06:15:06;;;;;;;42.53;29.70;;;;;;;;;;5078077;28;20420;-75
2023/03/18 06:17:32;;;;;;;51.95;35.33;;;;;;;;;;5081556;28;20066;-77
2023/03/18 06:19:59;;;;;;;44.25;29.45;;;;;;;;;;5060155;28;20045;-76
2023/03/18 06:22:25;;;;;;;46.70;28.52;;;;;;;;;;5086470;28;20076;-70
2023/03/18 06:24:52;;;;;;;44.05;27.05;;;;;;;;;;5073523;28;20043;-72
2023/03/18 06:27:18;;;;;;;39.00;26.40;;;;;;;;;;5075110;28;20751;-74
2023/03/18 06:29:44;;;;;;;35.53;25.02;;;;;;;;;;5063872;28;21811;-73
2023/03/18 06:32:10;;;;;;;42.80;27.67;;;;;;;;;;5090685;28;20430;-74
2023/03/18 06:34:36;;;;;;;38.55;27.15;;;;;;;;;;5082919;28;20361;-74
2023/03/18 06:37:03;;;;;;;42.30;27.17;;;;;;;;;;5081359;28;20048;-74
2023/03/18 06:39:29;;;;;;;37.47;26.55;;;;;;;;;;5083793;28;20020;-74
2023/03/18 06:41:55;;;;;;;35.80;25.65;;;;;;;;;;5080699;28;20033;-74
2023/03/18 06:44:22;;;;;;;43.42;29.05;;;;;;;;;;5079400;28;20352;-75
2023/03/18 06:46:48;;;;;;;41.47;27.63;;;;;;;;;;5078937;28;20028;-72
2023/03/18 06:49:14;;;;;;;40.60;26.80;;;;;;;;;;5086217;28;20039;-73
2023/03/18 06:51:41;;;;;;;42.30;28.05;;;;;;;;;;5078342;28;20051;-73
2023/03/18 06:54:08;;;;;;;43.30;27.00;;;;;;;;;;5072856;28;20024;-74
2023/03/18 06:56:37;;;;;;;37.72;27.10;;;;;;;;;;5085538;28;20028;-75
2023/03/18 06:59:03;;;;;;;42.90;29.40;;;;;;;;;;5081290;28;20116;-74
2023/03/18 07:01:31;;;;;;;37.15;27.35;;;;;;;;;;5081763;28;20519;-73
2023/03/18 07:03:57;;;;;;;40.42;27.15;;;;;;;;;;5085773;28;20024;-74
2023/03/18 07:06:24;;;;;;;42.97;27.45;;;;;;;;;;5087513;28;20031;-75
2023/03/18 07:08:50;;;;;;;43.80;26.75;;;;;;;;;;5081945;28;20081;-74
2023/03/18 07:11:16;;;;;;;37.75;27.92;;;;;;;;;;5074595;28;20144;-73
2023/03/18 07:13:42;;;;;;;43.20;28.15;;;;;;;;;;5082415;28;20040;-74
2023/03/18 07:16:08;;;;;;;42.65;27.13;;;;;;;;;;5064194;28;20384;-76
2023/03/18 07:18:34;;;;;;;37.85;27.20;;;;;;;;;;5078493;28;20028;-76
2023/03/18 07:21:00;;;;;;;303.95;186.30;;;;;;;;;;5086538;28;20459;-78
2023/03/18 07:23:27;;;;;;;65.35;41.83;;;;;;;;;;5067967;28;20041;-78
2023/03/18 07:25:53;;;;;;;43.53;30.90;;;;;;;;;;5092499;28;20091;-74
2023/03/18 07:28:19;;;;;;;40.10;25.80;;;;;;;;;;5086571;28;20040;-75
2023/03/18 07:30:46;;;;;;;40.88;25.15;;;;;;;;;;5082450;28;20389;-74
2023/03/18 07:33:12;;;;;;;36.95;25.48;;;;;;;;;;5061104;28;20437;-73
2023/03/18 07:35:40;;;;;;;37.85;25.15;;;;;;;;;;5082142;28;20028;-76
2023/03/18 07:38:07;;;;;;;36.50;25.98;;;;;;;;;;5081261;28;20537;-75
2023/03/18 07:40:33;;;;;;;37.80;25.38;;;;;;;;;;5077106;28;20044;-75
2023/03/18 07:42:59;;;;;;;34.38;24.63;;;;;;;;;;5077479;28;20097;-74
2023/03/18 07:45:25;;;;;;;34.70;23.05;;;;;;;;;;5079363;28;20028;-74
2023/03/18 07:47:53;;;;;;;35.72;23.85;;;;;;;;;;5084120;28;20074;-73
2023/03/18 07:50:19;;;;;;;31.02;23.80;;;;;;;;;;5085665;28;20036;-74
2023/03/18 07:52:45;;;;;;;32.90;22.60;;;;;;;;;;5060162;28;20036;-73
2023/03/18 07:55:11;;;;;;;33.17;23.88;;;;;;;;;;5080999;28;20028;-77
2023/03/18 07:57:37;;;;;;;30.15;23.00;;;;;;;;;;5077802;28;20032;-76
2023/03/18 08:00:05;;;;;;;35.25;24.15;;;;;;;;;;5082064;28;20035;-76
2023/03/18 08:02:32;;;;;;;30.33;22.65;;;;;;;;;;5076984;28;20075;-75
2023/03/18 08:04:58;;;;;;;33.58;24.00;;;;;;;;;;5072828;28;20035;-77
2023/03/18 08:07:24;;;;;;;31.95;22.83;;;;;;;;;;5091915;28;20072;-76
2023/03/18 08:09:50;;;;;;;33.20;23.70;;;;;;;;;;5091171;28;20392;-77
2023/03/18 08:12:17;;;;;;;37.10;24.90;;;;;;;;;;5091292;28;20035;-76
2023/03/18 08:14:43;;;;;;;32.58;23.63;;;;;;;;;;5081318;28;20138;-76
2023/03/18 08:17:09;;;;;;;40.10;25.00;;;;;;;;;;5091679;28;20036;-77
2023/03/18 08:19:36;;;;;;;38.00;26.30;;;;;;;;;;5084790;28;20082;-76
2023/03/18 08:22:02;;;;;;;34.75;24.63;;;;;;;;;;5088039;28;20044;-76
2023/03/18 08:24:28;;;;;;;37.88;24.75;;;;;;;;;;5089260;28;20861;-76
2023/03/18 08:26:55;;;;;;;34.60;25.45;;;;;;;;;;5069887;28;20381;-75
2023/03/18 08:29:21;;;;;;;38.38;25.38;;;;;;;;;;5090220;28;20032;-75
2023/03/18 08:31:47;;;;;;;39.60;25.30;;;;;;;;;;5073950;28;20049;-75
2023/03/18 08:34:14;;;;;;;33.15;24.92;;;;;;;;;;5091135;28;20028;-76
2023/03/18 08:36:41;;;;;;;37.70;26.23;;;;;;;;;;5083989;28;20056;-76
2023/03/18 08:39:08;;;;;;;37.75;26.55;;;;;;;;;;5075960;28;20036;-77
2023/03/18 08:41:35;;;;;;;36.78;25.95;;;;;;;;;;5090527;28;20388;-76
2023/03/18 08:44:02;;;;;;;38.65;26.33;;;;;;;;;;5091528;28;20028;-76
2023/03/18 08:46:28;;;;;;;35.95;26.42;;;;;;;;;;5090958;28;21404;-76
2023/03/18 08:48:54;;;;;;;39.33;27.58;;;;;;;;;;5090158;28;20035;-76
2023/03/18 08:51:21;;;;;;;42.05;26.05;;;;;;;;;;5090696;28;20040;-76
2023/03/18 08:53:48;;;;;;;38.85;26.75;;;;;;;;;;5075008;28;20123;-76
2023/03/18 08:56:14;;;;;;;34.13;25.17;;;;;;;;;;5092197;28;20060;-77
2023/03/18 08:58:42;;;;;;;37.22;26.70;;;;;;;;;;5089033;28;20039;-77
2023/03/18 09:01:08;;;;;;;38.22;27.58;;;;;;;;;;5090184;28;20400;-77
2023/03/18 09:03:35;;;;;;;42.38;27.55;;;;;;;;;;5090792;28;20027;-76
2023/03/18 09:06:02;;;;;;;36.67;27.65;;;;;;;;;;5091932;28;20107;-77
2023/03/18 09:08:29;;;;;;;39.88;26.58;;;;;;;;;;5089002;28;20402;-77
2023/03/18 09:10:57;;;;;;;33.30;26.42;;;;;;;;;;5090129;28;20028;-77
2023/03/18 09:13:23;;;;;;;37.70;26.98;;;;;;;;;;5091854;28;20032;-77
2023/03/18 09:15:49;;;;;;;33.22;25.50;;;;;;;;;;5089605;28;20036;-77
2023/03/18 09:18:17;;;;;;;34.70;25.85;;;;;;;;;;5072732;28;20052;-77
2023/03/18 09:20:44;;;;;;;34.10;26.17;;;;;;;;;;5087140;28;20051;-76
2023/03/18 09:23:12;;;;;;;36.88;25.17;;;;;;;;;;5088878;28;20082;-77
2023/03/18 09:25:39;;;;;;;39.15;26.30;;;;;;;;;;5088142;28;20060;-76
2023/03/18 09:28:05;;;;;;;35.70;26.70;;;;;;;;;;5090999;28;20074;-77
2023/03/18 09:30:32;;;;;;;35.55;26.23;;;;;;;;;;5088567;28;20036;-76
2023/03/18 09:32:58;;;;;;;31.80;25.42;;;;;;;;;;5082614;28;20043;-76
2023/03/18 09:35:27;;;;;;;38.20;26.52;;;;;;;;;;5089965;28;20020;-76
2023/03/18 09:37:54;;;;;;;36.45;26.92;;;;;;;;;;5079167;28;20492;-77
2023/03/18 09:40:28;;;;;;;34.97;26.42;;;;;;;;;;5082342;28;20333;-76
2023/03/18 09:43:12;;;;;;;37.92;26.73;;;;;;;;;;5088258;28;20103;-76
2023/03/18 09:45:56;;;;;;;39.05;27.33;;;;;;;;;;5090022;28;20020;-76
2023/03/18 09:48:55;;;;;;;36.88;26.05;;;;;;;;;;5074376;28;20027;-75
2023/03/18 09:51:36;;;;;;;32.90;24.60;;;;;;;;;;5090856;28;20036;-75
2023/03/18 09:54:03;;;;;;;35.33;25.90;;;;;;;;;;5074894;28;20028;-78
2023/03/18 09:56:33;;;;;;;34.13;25.10;;;;;;;;;;5088609;28;20349;-77
2023/03/18 09:59:02;;;;;;;32.67;24.42;;;;;;;;;;5091558;28;20028;-77
2023/03/18 10:01:28;;;;;;;34.88;25.55;;;;;;;;;;5085623;28;20034;-76
2023/03/18 10:04:13;;;;;;;34.65;25.58;;;;;;;;;;5085115;28;20388;-77
2023/03/18 10:06:41;;;;;;;33.72;25.25;;;;;;;;;;5089914;28;20028;-77
2023/03/18 10:09:13;;;;;;;35.05;25.20;;;;;;;;;;5090971;28;20016;-78
2023/03/18 10:11:44;;;;;;;27.40;23.53;;;;;;;;;;5091174;28;20036;-77
2023/03/18 10:14:25;;;;;;;31.77;23.30;;;;;;;;;;5070512;28;20029;-78
2023/03/18 10:16:58;;;;;;;29.60;21.23;;;;;;;;;;5087972;28;20036;-76
2023/03/18 10:19:24;;;;;;;27.65;20.23;;;;;;;;;;5070842;28;20075;-76
2023/03/18 10:21:59;;;;;;;29.15;21.63;;;;;;;;;;5077128;28;20052;-78
2023/03/18 10:24:36;;;;;;;22.95;18.08;;;;;;;;;;5085253;28;20036;-84
2023/03/18 10:27:09;;;;;;;20.23;15.82;;;;;;;;;;5052955;28;20468;-80
2023/03/18 10:29:39;;;;;;;18.42;13.10;;;;;;;;;;5069886;28;20063;-78
2023/03/18 10:32:17;;;;;;;19.92;12.85;;;;;;;;;;5086114;28;20039;-80
2023/03/18 10:35:15;;;;;;;14.45;11.05;;;;;;;;;;5075719;28;20180;-79
2023/03/18 10:37:48;;;;;;;37.03;25.27;;;;;;;;;;5086145;28;20085;-86
2023/03/18 10:40:15;;;;;;;15.23;11.38;;;;;;;;;;5065811;28;20024;-83
2023/03/18 10:42:42;;;;;;;11.45;8.98;;;;;;;;;;5086535;28;20036;-82
2023/03/18 10:45:19;;;;;;;13.88;10.43;;;;;;;;;;5076898;28;20532;-84
2023/03/18 10:47:47;;;;;;;14.15;9.18;;;;;;;;;;5078130;28;20429;-82
2023/03/18 10:50:17;;;;;;;11.80;7.70;;;;;;;;;;5059129;28;20033;-82
2023/03/18 10:52:46;;;;;;;10.20;8.38;;;;;;;;;;5071231;28;20393;-82
2023/03/18 10:55:16;;;;;;;10.50;7.35;;;;;;;;;;5076141;28;20029;-82
2023/03/18 10:57:42;;;;;;;8.80;6.45;;;;;;;;;;5082619;28;20102;-81
2023/03/18 11:00:24;;;;;;;9.27;6.25;;;;;;;;;;5072929;28;20063;-84
2023/03/18 11:02:50;;;;;;;9.80;5.45;;;;;;;;;;5089651;28;20087;-82
2023/03/18 11:05:17;;;;;;;8.50;5.13;;;;;;;;;;5084615;28;20342;-83
2023/03/18 11:07:58;;;;;;;8.95;7.07;;;;;;;;;;5076282;28;20028;-83
2023/03/18 11:10:26;;;;;;;9.90;6.32;;;;;;;;;;5075057;28;20081;-82
2023/03/18 11:12:54;;;;;;;9.93;6.93;;;;;;;;;;5081441;28;20036;-83
2023/03/18 11:15:20;;;;;;;10.18;6.53;;;;;;;;;;5073408;28;20495;-77
2023/03/18 11:17:48;;;;;;;10.07;6.00;;;;;;;;;;5067352;28;20449;-78
2023/03/18 11:20:32;;;;;;;12.93;5.70;;;;;;;;;;5089057;28;20490;-79
2023/03/18 11:23:10;;;;;;;7.22;4.90;;;;;;;;;;5075900;28;20429;-79
2023/03/18 11:25:36;;;;;;;8.55;5.35;;;;;;;;;;5082272;28;20350;-78
2023/03/18 11:28:04;;;;;;;8.60;5.63;;;;;;;;;;5083864;28;20088;-83
2023/03/18 11:30:34;;;;;;;8.38;5.88;;;;;;;;;;5078314;28;20072;-80
2023/03/18 11:33:10;;;;;;;8.20;5.78;;;;;;;;;;5093525;28;20459;-80
2023/03/18 11:35:39;;;;;;;9.27;6.00;;;;;;;;;;5087571;28;20116;-81
2023/03/18 11:38:06;;;;;;;12.05;6.72;;;;;;;;;;5078032;28;20265;-78
2023/03/18 11:40:32;;;;;;;15.45;8.85;;;;;;;;;;5072295;28;20028;-81
2023/03/18 11:42:59;;;;;;;11.70;8.93;;;;;;;;;;5067543;28;20112;-79
2023/03/18 11:45:26;;;;;;;11.73;8.93;;;;;;;;;;5077035;28;20032;-79
2023/03/18 11:47:53;;;;;;;16.55;9.70;;;;;;;;;;5088364;28;20055;-81
2023/03/18 11:50:24;;;;;;;72.82;46.78;;;;;;;;;;5090231;28;20508;-82
2023/03/18 11:53:02;;;;;;;13.50;9.32;;;;;;;;;;5084135;28;20035;-84
2023/03/18 11:55:47;;;;;;;13.13;9.38;;;;;;;;;;5079952;28;20560;-78
2023/03/18 11:58:25;;;;;;;12.07;8.43;;;;;;;;;;5083428;28;20472;-80
2023/03/18 12:00:51;;;;;;;11.65;7.93;;;;;;;;;;5065002;28;20039;-80
2023/03/18 12:03:21;;;;;;;10.32;7.43;;;;;;;;;;5084770;28;20032;-81
2023/03/18 12:05:55;;;;;;;10.63;6.15;;;;;;;;;;5072960;28;20024;-82
2023/03/18 12:08:40;;;;;;;9.88;5.82;;;;;;;;;;5087163;28;20008;-81
2023/03/18 12:11:10;;;;;;;9.52;6.88;;;;;;;;;;5092855;28;20028;-82
2023/03/18 12:13:45;;;;;;;10.23;6.05;;;;;;;;;;5092987;28;20028;-82
2023/03/18 12:16:18;;;;;;;8.70;4.57;;;;;;;;;;5078263;28;20093;-82
2023/03/18 12:18:57;;;;;;;10.45;5.10;;;;;;;;;;5079260;28;20612;-82
2023/03/18 12:21:34;;;;;;;9.52;6.78;;;;;;;;;;5091814;28;20040;-79
2023/03/18 12:24:00;;;;;;;10.90;6.32;;;;;;;;;;5092781;28;20031;-83
2023/03/18 12:26:46;;;;;;;8.02;5.95;;;;;;;;;;5092186;28;20146;-82
2023/03/18 12:29:28;;;;;;;7.93;6.05;;;;;;;;;;5076191;28;20032;-81
2023/03/18 12:32:13;;;;;;;7.95;5.63;;;;;;;;;;5087324;28;20036;-82
2023/03/18 12:34:42;;;;;;;6.82;4.65;;;;;;;;;;5090741;28;20064;-82
2023/03/18 12:37:14;;;;;;;8.98;4.70;;;;;;;;;;5089309;28;20052;-81
2023/03/18 12:39:44;;;;;;;7.43;4.32;;;;;;;;;;5091413;28;20062;-81
2023/03/18 12:42:12;;;;;;;10.48;4.82;;;;;;;;;;5088737;28;20036;-81
2023/03/18 12:44:41;;;;;;;7.50;4.25;;;;;;;;;;5077333;28;20040;-81
2023/03/18 12:47:20;;;;;;;5.75;3.85;;;;;;;;;;5091383;28;20024;-81
2023/03/18 12:49:52;;;;;;;11.80;4.78;;;;;;;;;;5073000;28;20112;-80
2023/03/18 12:52:39;;;;;;;7.60;4.32;;;;;;;;;;5091707;28;20043;-81
2023/03/18 12:55:24;;;;;;;4.70;3.95;;;;;;;;;;5090485;28;20085;-82
2023/03/18 12:57:56;;;;;;;7.60;3.70;;;;;;;;;;5079472;28;20032;-84
2023/03/18 13:00:34;;;;;;;5.78;3.40;;;;;;;;;;5089977;28;20424;-82
2023/03/18 13:03:23;;;;;;;6.47;4.00;;;;;;;;;;5085170;28;20097;-82
2023/03/18 13:05:51;;;;;;;5.88;3.55;;;;;;;;;;5091762;28;20040;-82
2023/03/18 13:08:26;;;;;;;5.72;3.22;;;;;;;;;;5090918;28;20028;-82
2023/03/18 13:11:14;;;;;;;5.85;3.50;;;;;;;;;;5091300;28;20028;-81
2023/03/18 13:13:44;;;;;;;5.15;2.97;;;;;;;;;;5092646;28;20539;-81
2023/03/18 13:16:11;;;;;;;4.82;3.22;;;;;;;;;;5093527;28;20365;-81
2023/03/18 13:18:49;;;;;;;4.82;3.00;;;;;;;;;;5091517;28;20031;-82
2023/03/18 13:21:17;;;;;;;4.82;3.03;;;;;;;;;;5081048;28;20134;-80
2023/03/18 13:23:58;;;;;;;6.72;3.15;;;;;;;;;;5090193;28;20070;-80
2023/03/18 13:26:27;;;;;;;5.78;3.33;;;;;;;;;;5089393;28;20063;-82
2023/03/18 13:29:15;;;;;;;5.65;3.20;;;;;;;;;;5091169;28;20053;-81
2023/03/18 13:31:58;;;;;;;7.55;3.33;;;;;;;;;;5090749;28;20063;-79
2023/03/18 13:34:25;;;;;;;;;;;;;;;;;;5090392;28;20620;-79
2023/03/18 13:36:54;;;;;;;4.35;2.83;;;;;;;;;;5091514;28;19904;-80
2023/03/18 13:39:30;;;;;;;8.98;3.28;;;;;;;;;;5091271;28;20491;-81
2023/03/18 13:42:09;;;;;;;6.38;3.38;;;;;;;;;;5076291;28;20052;-80
2023/03/18 13:44:44;;;;;;;8.55;3.60;;;;;;;;;;5086032;28;20110;-79
2023/03/18 13:47:20;;;;;;;7.45;3.95;;;;;;;;;;5089788;28;20036;-80
2023/03/18 13:49:47;;;;;;;6.85;3.30;;;;;;;;;;5091408;28;20028;-80
2023/03/18 13:52:25;;;;;;;7.68;4.65;;;;;;;;;;5088750;28;20047;-83
2023/03/18 13:54:51;;;;;;;6.70;4.65;;;;;;;;;;5087795;28;20032;-80
2023/03/18 13:57:23;;;;;;;7.10;4.70;;;;;;;;;;5067463;28;20408;-79
2023/03/18 13:59:50;;;;;;;6.53;4.47;;;;;;;;;;5071727;28;20446;-80
2023/03/18 14:02:27;;;;;;;6.57;4.45;;;;;;;;;;5088336;28;20119;-81
2023/03/18 14:04:55;;;;;;;8.77;4.85;;;;;;;;;;5087204;28;20020;-81
2023/03/18 14:07:22;;;;;;;7.72;4.38;;;;;;;;;;5073846;28;20054;-81
2023/03/18 14:09:53;;;;;;;5.68;4.80;;;;;;;;;;5072695;28;20054;-81
2023/03/18 14:12:20;;;;;;;8.30;5.10;;;;;;;;;;5088231;28;20036;-80
2023/03/18 14:14:50;;;;;;;9.63;5.53;;;;;;;;;;5088688;28;20053;-80
2023/03/18 14:17:18;;;;;;;6.45;5.28;;;;;;;;;;5072489;28;20036;-79
2023/03/18 14:19:44;;;;;;;8.57;5.40;;;;;;;;;;5084835;28;20025;-80
2023/03/18 14:22:22;;;;;;;6.90;5.63;;;;;;;;;;5087456;28;20044;-80
2023/03/18 14:25:08;;;;;;;9.07;5.40;;;;;;;;;;5090713;28;20520;-80
2023/03/18 14:27:43;;;;;;;9.40;6.60;;;;;;;;;;5087482;28;20035;-83
2023/03/18 14:30:39;;;;;;;9.15;6.82;;;;;;;;;;5088975;28;20381;-80
2023/03/18 14:33:25;;;;;;;10.48;6.80;;;;;;;;;;4997646;28;20125;-80
2023/03/18 14:35:57;;;;;;;13.10;8.30;;;;;;;;;;5069713;28;20024;-79